createdAt,value
2018-08-03T00:02:12.928Z,24.00
2018-08-03T00:07:16.195Z,23.90
2018-08-03T00:09:48.600Z,23.80
2018-08-03T00:14:53.219Z,23.70
2018-08-03T00:17:22.595Z,23.70
2018-08-03T00:19:53.243Z,23.60
2018-08-03T00:22:21.932Z,23.70
2018-08-03T00:24:55.854Z,23.70
2018-08-03T00:27:24.596Z,23.60
2018-08-03T00:29:58.063Z,23.60
2018-08-03T00:32:27.092Z,23.50
2018-08-03T00:35:00.966Z,23.50
2018-08-03T00:37:30.160Z,23.50
2018-08-03T00:40:03.729Z,23.50
2018-08-03T00:42:32.816Z,23.50
2018-08-03T00:45:09.102Z,23.50
2018-08-03T00:50:10.890Z,23.40
2018-08-03T00:52:40.085Z,23.40
2018-08-03T00:55:13.668Z,23.40
2018-08-03T00:57:42.410Z,23.30
2018-08-03T01:00:19.746Z,23.30
2018-08-03T01:05:20.103Z,23.30
2018-08-03T01:07:48.931Z,23.20
2018-08-03T01:10:21.152Z,23.20
2018-08-03T01:12:49.841Z,23.20
2018-08-03T01:20:26.892Z,23.20
2018-08-03T01:22:55.680Z,23.10
2018-08-03T01:25:28.323Z,23.10
2018-08-03T01:27:57.093Z,23.10
2018-08-03T01:30:33.528Z,23.10
2018-08-03T01:33:02.567Z,23.10
2018-08-03T01:35:34.916Z,23.00
2018-08-03T01:38:03.804Z,23.00
2018-08-03T01:40:38.162Z,23.00
2018-08-03T01:43:07.128Z,23.00
2018-08-03T01:45:43.036Z,22.90
2018-08-03T01:48:12.071Z,22.90
2018-08-03T01:50:44.544Z,22.90
2018-08-03T01:53:13.234Z,22.80
2018-08-03T01:55:49.127Z,22.80
2018-08-03T01:58:18.120Z,22.90
2018-08-03T02:00:47.975Z,22.80
2018-08-03T02:03:16.806Z,22.80
2018-08-03T02:05:52.118Z,22.80
2018-08-03T02:08:21.168Z,22.80
2018-08-03T02:10:54.178Z,22.80
2018-08-03T02:13:22.910Z,22.80
2018-08-03T02:15:59.744Z,22.70
2018-08-03T02:18:29.493Z,22.70
2018-08-03T02:20:59.561Z,22.70
2018-08-03T02:23:29.259Z,22.70
2018-08-03T02:26:02.209Z,22.60
2018-08-03T02:28:30.958Z,22.60
2018-08-03T02:31:04.915Z,22.60
2018-08-03T02:33:34.333Z,22.60
2018-08-03T02:36:08.792Z,22.60
2018-08-03T02:38:38.207Z,22.60
2018-08-03T02:43:43.581Z,22.50
2018-08-03T02:46:13.888Z,22.50
2018-08-03T02:48:42.913Z,22.50
2018-08-03T02:51:18.829Z,22.50
2018-08-03T02:53:47.496Z,22.50
2018-08-03T02:56:19.347Z,22.40
2018-08-03T02:58:48.160Z,22.40
2018-08-03T03:01:24.793Z,22.40
2018-08-03T03:03:53.895Z,22.30
2018-08-03T03:06:23.640Z,22.30
2018-08-03T03:11:28.331Z,22.30
2018-08-03T03:13:57.369Z,22.30
2018-08-03T03:16:28.052Z,22.20
2018-08-03T03:18:57.337Z,22.30
2018-08-03T03:21:33.366Z,22.20
2018-08-03T03:24:04.204Z,22.20
2018-08-03T03:26:33.180Z,22.20
2018-08-03T03:29:01.901Z,22.20
2018-08-03T03:31:40.161Z,22.20
2018-08-03T03:34:08.941Z,22.20
2018-08-03T03:36:38.104Z,22.10
2018-08-03T03:39:10.063Z,22.20
2018-08-03T03:41:40.786Z,22.10
2018-08-03T03:44:10.026Z,22.10
2018-08-03T03:46:46.403Z,22.10
2018-08-03T03:49:15.519Z,22.10
2018-08-03T03:51:47.338Z,22.10
2018-08-03T03:54:17.012Z,22.00
2018-08-03T03:56:49.546Z,22.10
2018-08-03T03:59:18.269Z,22.10
2018-08-03T04:01:55.299Z,22.10
2018-08-03T04:04:24.461Z,22.10
2018-08-03T04:06:54.940Z,22.00
2018-08-03T04:09:23.821Z,22.00
2018-08-03T04:11:56.973Z,22.00
2018-08-03T04:14:26.113Z,21.90
2018-08-03T04:17:02.297Z,21.90
2018-08-03T04:19:31.317Z,21.90
2018-08-03T04:22:03.941Z,21.90
2018-08-03T04:24:32.639Z,21.90
2018-08-03T04:27:06.121Z,21.80
2018-08-03T04:29:36.816Z,21.80
2018-08-03T04:32:09.356Z,21.80
2018-08-03T04:34:38.380Z,21.90
2018-08-03T04:37:12.622Z,21.90
2018-08-03T04:39:41.320Z,21.90
2018-08-03T04:42:17.916Z,21.90
2018-08-03T04:44:47.612Z,21.90
2018-08-03T04:47:17.280Z,21.90
2018-08-03T04:49:46.391Z,21.90
2018-08-03T04:52:22.832Z,21.90
2018-08-03T04:54:51.677Z,21.80
2018-08-03T04:57:21.577Z,21.90
2018-08-03T04:59:50.327Z,21.90
2018-08-03T05:02:25.080Z,21.90
2018-08-03T05:04:55.116Z,21.80
2018-08-03T05:07:26.199Z,21.80
2018-08-03T05:09:55.171Z,21.80
2018-08-03T05:12:28.378Z,21.80
2018-08-03T05:14:57.126Z,21.80
2018-08-03T05:17:31.165Z,21.90
2018-08-03T05:20:00.215Z,21.90
2018-08-03T05:22:34.211Z,21.90
2018-08-03T05:25:02.941Z,21.90
2018-08-03T05:27:38.949Z,21.90
2018-08-03T05:30:08.872Z,21.90
2018-08-03T05:32:41.593Z,21.90
2018-08-03T05:35:10.312Z,21.90
2018-08-03T05:37:47.161Z,22.00
2018-08-03T05:40:16.609Z,21.90
2018-08-03T05:42:47.096Z,22.00
2018-08-03T05:45:16.009Z,21.90
2018-08-03T05:47:49.546Z,22.00
2018-08-03T05:50:18.706Z,22.00
2018-08-03T05:52:52.041Z,22.00
2018-08-03T05:55:21.350Z,22.00
2018-08-03T05:57:54.672Z,22.00
2018-08-03T06:00:26.395Z,22.10
2018-08-03T06:02:58.473Z,22.10
2018-08-03T06:05:27.255Z,22.10
2018-08-03T06:08:01.087Z,22.20
2018-08-03T06:10:30.403Z,22.20
2018-08-03T06:13:07.058Z,22.20
2018-08-03T06:15:35.856Z,22.20
2018-08-03T06:18:07.609Z,22.30
2018-08-03T06:20:36.713Z,22.30
2018-08-03T06:23:13.036Z,22.30
2018-08-03T06:25:41.776Z,22.40
2018-08-03T06:28:14.294Z,22.40
2018-08-03T06:30:43.700Z,22.40
2018-08-03T06:33:16.033Z,22.50
2018-08-03T06:35:45.259Z,22.60
2018-08-03T06:38:18.219Z,22.60
2018-08-03T06:40:47.063Z,22.70
2018-08-03T06:43:23.611Z,22.80
2018-08-03T06:45:52.451Z,22.80
2018-08-03T06:48:25.441Z,22.90
2018-08-03T06:50:56.105Z,22.90
2018-08-03T06:53:25.430Z,23.00
2018-08-03T06:55:54.635Z,23.00
2018-08-03T06:58:28.425Z,23.10
2018-08-03T07:01:00.262Z,23.10
2018-08-03T07:03:29.530Z,23.20
2018-08-03T07:05:59.589Z,23.20
2018-08-03T07:08:31.957Z,23.30
2018-08-03T07:11:00.941Z,23.30
2018-08-03T07:13:35.254Z,23.40
2018-08-03T07:16:04.072Z,23.50
2018-08-03T07:18:38.500Z,23.50
2018-08-03T07:21:07.625Z,23.60
2018-08-03T07:23:41.737Z,23.60
2018-08-03T07:26:10.715Z,23.70
2018-08-03T07:28:42.853Z,23.70
2018-08-03T07:31:12.165Z,23.80
2018-08-03T07:33:44.761Z,23.80
2018-08-03T07:36:14.090Z,23.90
2018-08-03T07:38:50.067Z,23.90
2018-08-03T07:41:19.169Z,23.90
2018-08-03T07:43:54.246Z,24.00
2018-08-03T07:46:24.616Z,24.10
2018-08-03T07:48:54.354Z,24.10
2018-08-03T07:51:23.822Z,24.10
2018-08-03T07:53:56.461Z,24.20
2018-08-03T07:56:25.876Z,24.20
2018-08-03T07:58:58.456Z,24.30
2018-08-03T08:01:27.562Z,24.40
2018-08-03T08:04:04.246Z,24.50
2018-08-03T08:06:34.376Z,24.60
2018-08-03T08:09:04.605Z,24.60
2018-08-03T08:11:33.426Z,24.70
2018-08-03T08:14:06.812Z,24.80
2018-08-03T08:16:36.476Z,24.90
2018-08-03T08:19:13.301Z,25.00
2018-08-03T08:21:42.391Z,25.10
2018-08-03T08:24:13.210Z,25.20
2018-08-03T08:26:42.099Z,25.20
2018-08-03T08:29:16.345Z,25.30
2018-08-03T08:31:46.370Z,25.40
2018-08-03T08:34:19.473Z,25.50
2018-08-03T08:36:52.295Z,25.60
2018-08-03T08:39:21.111Z,25.70
2018-08-03T08:41:50.519Z,25.80
2018-08-03T08:47:00.291Z,26.00
2018-08-03T08:49:29.151Z,26.10
2018-08-03T08:51:59.125Z,26.20
2018-08-03T08:54:28.279Z,26.40
2018-08-03T08:56:57.705Z,26.60
2018-08-03T08:59:29.655Z,26.70
2018-08-03T09:01:58.893Z,26.90
2018-08-03T09:04:37.239Z,27.10
2018-08-03T09:07:06.621Z,27.30
2018-08-03T09:09:35.931Z,27.60
2018-08-03T09:14:39.299Z,28.10
2018-08-03T09:17:08.290Z,28.30
2018-08-03T09:19:39.396Z,28.50
2018-08-03T09:22:09.708Z,28.80
2018-08-03T09:24:46.247Z,29.10
2018-08-03T09:27:15.593Z,29.40
2018-08-03T09:29:45.537Z,29.90
2018-08-03T09:32:16.715Z,30.30
2018-08-03T09:34:48.586Z,30.60
2018-08-03T09:37:17.670Z,31.00
2018-08-03T09:39:54.592Z,31.30
2018-08-03T09:42:23.699Z,31.60
2018-08-03T09:44:54.106Z,32.00
2018-08-03T09:47:22.955Z,32.30
2018-08-03T09:49:56.438Z,32.50
2018-08-03T09:52:25.269Z,32.60
2018-08-03T09:55:02.878Z,32.70
2018-08-03T09:57:32.622Z,32.90
2018-08-03T10:00:03.511Z,33.10
2018-08-03T10:02:33.157Z,33.40
2018-08-03T10:05:06.032Z,33.60
2018-08-03T10:07:34.936Z,33.80
2018-08-03T10:10:12.446Z,33.90
2018-08-03T10:12:42.021Z,34.10
2018-08-03T10:15:13.202Z,34.30
2018-08-03T10:17:43.258Z,34.30
2018-08-03T10:20:14.663Z,34.30
2018-08-03T10:22:43.664Z,34.40
2018-08-03T10:25:21.226Z,34.60
2018-08-03T10:27:51.065Z,34.60
2018-08-03T10:30:22.348Z,34.80
2018-08-03T10:32:51.433Z,35.00
2018-08-03T10:35:21.656Z,35.10
2018-08-03T10:37:50.706Z,34.60
2018-08-03T10:40:30.178Z,34.90
2018-08-03T10:43:00.410Z,35.10
2018-08-03T10:45:31.693Z,35.30
2018-08-03T10:48:01.660Z,35.50
2018-08-03T10:50:32.163Z,35.70
2018-08-03T10:53:07.102Z,35.90
2018-08-03T10:55:39.369Z,36.00
2018-08-03T10:58:08.709Z,36.10
2018-08-03T11:00:37.926Z,36.10
2018-08-03T11:03:06.948Z,36.20
2018-08-03T11:05:36.125Z,36.40
2018-08-03T11:08:05.076Z,36.60
2018-08-03T11:10:41.698Z,36.70
2018-08-03T11:13:12.990Z,36.60
2018-08-03T11:15:43.103Z,36.50
2018-08-03T11:18:12.705Z,36.70
2018-08-03T11:20:44.975Z,36.70
2018-08-03T11:23:14.438Z,36.70
2018-08-03T11:25:47.638Z,36.80
2018-08-03T11:28:17.176Z,36.90
2018-08-03T11:30:50.069Z,36.80
2018-08-03T11:33:18.944Z,36.90
2018-08-03T11:35:55.186Z,36.90
2018-08-03T11:38:24.496Z,36.80
2018-08-03T11:40:58.840Z,36.90
2018-08-03T11:43:28.341Z,37.10
2018-08-03T11:46:01.650Z,37.30
2018-08-03T11:48:30.905Z,37.40
2018-08-03T11:51:03.809Z,37.40
2018-08-03T11:53:32.686Z,37.50
2018-08-03T11:56:08.055Z,37.30
2018-08-03T11:58:40.718Z,37.10
2018-08-03T12:01:09.621Z,37.30
2018-08-03T12:03:41.144Z,37.10
2018-08-03T12:06:12.233Z,36.90
2018-08-03T12:08:43.148Z,37.00
2018-08-03T12:11:14.287Z,36.90
2018-08-03T12:13:44.642Z,37.00
2018-08-03T12:16:18.094Z,37.20
2018-08-03T12:18:47.564Z,37.20
2018-08-03T12:21:20.087Z,37.20
2018-08-03T12:23:50.371Z,37.30
2018-08-03T12:26:21.330Z,37.30
2018-08-03T12:28:50.639Z,37.40
2018-08-03T12:31:24.691Z,37.40
2018-08-03T12:33:53.754Z,37.30
2018-08-03T12:36:26.681Z,37.30
2018-08-03T12:38:55.815Z,37.50
2018-08-03T12:41:29.426Z,37.50
2018-08-03T12:44:00.366Z,37.60
2018-08-03T12:46:32.084Z,37.60
2018-08-03T12:49:01.475Z,37.60
2018-08-03T12:51:57.598Z,37.40
2018-08-03T12:54:33.463Z,37.30
2018-08-03T12:57:02.486Z,37.00
2018-08-03T12:59:39.911Z,37.10
2018-08-03T13:02:10.267Z,37.20
2018-08-03T13:04:39.220Z,37.30
2018-08-03T13:07:08.600Z,37.30
2018-08-03T13:09:45.409Z,37.40
2018-08-03T13:12:15.387Z,37.30
2018-08-03T13:14:48.071Z,37.40
2018-08-03T13:17:16.955Z,37.30
2018-08-03T13:19:49.221Z,37.30
2018-08-03T13:22:21.849Z,37.10
2018-08-03T13:24:51.604Z,37.20
2018-08-03T13:27:21.636Z,37.30
2018-08-03T13:29:54.515Z,37.30
2018-08-03T13:32:24.491Z,37.20
2018-08-03T13:34:57.707Z,37.20
2018-08-03T13:37:27.122Z,37.20
2018-08-03T13:40:00.202Z,36.80
2018-08-03T13:42:29.293Z,36.90
2018-08-03T13:45:06.074Z,36.90
2018-08-03T13:47:35.054Z,36.90
2018-08-03T13:50:05.689Z,36.90
2018-08-03T13:52:35.140Z,37.00
2018-08-03T13:55:11.955Z,37.00
2018-08-03T13:57:42.290Z,37.10
2018-08-03T14:00:13.669Z,37.30
2018-08-03T14:02:43.799Z,37.40
2018-08-03T14:05:14.709Z,37.40
2018-08-03T14:07:45.300Z,37.30
2018-08-03T14:10:15.803Z,37.20
2018-08-03T14:12:44.934Z,37.10
2018-08-03T14:15:21.330Z,37.10
2018-08-03T14:20:22.123Z,37.20
2018-08-03T14:22:51.184Z,37.10
2018-08-03T14:25:25.030Z,37.20
2018-08-03T14:27:56.161Z,37.30
2018-08-03T14:30:27.057Z,37.30
2018-08-03T14:32:57.667Z,37.20
2018-08-03T14:35:30.187Z,36.90
2018-08-03T14:37:59.351Z,37.00
2018-08-03T14:40:32.214Z,37.00
2018-08-03T14:43:01.416Z,36.90
2018-08-03T14:45:33.323Z,36.80
2018-08-03T14:48:03.169Z,36.70
2018-08-03T14:50:37.824Z,36.60
2018-08-03T14:53:07.101Z,36.60
2018-08-03T14:55:40.520Z,36.30
2018-08-03T14:58:10.845Z,36.10
2018-08-03T15:00:40.583Z,35.90
2018-08-03T15:03:09.401Z,36.00
2018-08-03T15:05:44.100Z,36.00
2018-08-03T15:08:13.087Z,36.00
2018-08-03T15:10:51.281Z,36.00
2018-08-03T15:13:20.340Z,36.00
2018-08-03T15:15:49.248Z,36.00
2018-08-03T15:18:18.726Z,36.00
2018-08-03T15:20:51.709Z,35.90
2018-08-03T15:23:21.690Z,36.00
2018-08-03T15:25:54.297Z,36.00
2018-08-03T15:28:23.446Z,36.00
2018-08-03T15:30:59.669Z,36.00
2018-08-03T15:33:30.988Z,35.90
2018-08-03T15:36:00.669Z,35.70
2018-08-03T15:38:30.132Z,35.70
2018-08-03T15:41:02.298Z,35.70
2018-08-03T15:43:31.969Z,35.50
2018-08-03T15:46:08.897Z,35.40
2018-08-03T15:48:37.979Z,35.40
2018-08-03T15:51:10.952Z,35.40
2018-08-03T15:53:40.689Z,35.30
2018-08-03T15:56:12.953Z,35.40
2018-08-03T15:58:45.235Z,35.40
2018-08-03T16:01:14.734Z,35.40
2018-08-03T16:03:45.015Z,35.40
2018-08-03T16:06:18.430Z,35.40
2018-08-03T16:08:47.551Z,35.30
2018-08-03T16:11:21.079Z,35.20
2018-08-03T16:13:50.337Z,35.10
2018-08-03T16:16:24.159Z,35.00
2018-08-03T16:18:53.344Z,34.90
2018-08-03T16:21:23.093Z,34.80
2018-08-03T16:26:11.350Z,34.70
2018-08-03T16:28:40.839Z,34.60
2018-08-03T16:31:11.117Z,34.40
2018-08-03T16:33:40.000Z,34.30
2018-08-03T16:36:11.057Z,34.20
2018-08-03T16:38:41.811Z,34.10
2018-08-03T16:41:11.272Z,33.90
2018-08-03T16:43:40.653Z,33.80
2018-08-03T16:46:11.583Z,33.80
2018-08-03T16:48:40.567Z,33.70
2018-08-03T16:51:10.177Z,33.50
2018-08-03T16:53:39.340Z,33.50
2018-08-03T16:56:08.874Z,33.30
2018-08-03T16:58:42.584Z,33.30
2018-08-03T17:01:11.429Z,33.20
2018-08-03T17:03:45.742Z,33.10
2018-08-03T17:06:15.094Z,33.20
2018-08-03T17:08:47.712Z,33.10
2018-08-03T17:11:16.919Z,33.00
2018-08-03T17:13:50.397Z,33.00
2018-08-03T17:16:20.197Z,33.00
2018-08-03T17:18:54.352Z,32.90
2018-08-03T17:21:27.674Z,32.80
2018-08-03T17:24:00.165Z,32.70
2018-08-03T17:26:29.097Z,32.60
2018-08-03T17:28:58.957Z,32.60
2018-08-03T17:31:28.818Z,32.50
2018-08-03T17:34:01.920Z,32.40
2018-08-03T17:36:31.838Z,32.40
2018-08-03T17:39:07.101Z,32.30
2018-08-03T17:41:36.982Z,32.20
2018-08-03T17:44:08.190Z,32.10
2018-08-03T17:46:37.480Z,32.00
2018-08-03T17:49:14.622Z,32.00
2018-08-03T17:51:45.427Z,31.90
2018-08-03T17:54:14.540Z,31.80
2018-08-03T17:56:43.693Z,31.80
2018-08-03T17:59:16.607Z,31.70
2018-08-03T18:01:45.422Z,31.60
2018-08-03T18:04:22.463Z,31.60
2018-08-03T18:06:51.560Z,31.60
2018-08-03T18:09:21.396Z,31.50
2018-08-03T18:11:51.242Z,31.50
2018-08-03T18:14:55.687Z,31.40
2018-08-03T18:17:30.581Z,31.40
2018-08-03T18:19:59.517Z,31.30
2018-08-03T18:22:28.437Z,31.30
2018-08-03T18:24:58.238Z,31.30
2018-08-03T18:27:31.181Z,31.30
2018-08-03T18:30:00.938Z,31.30
2018-08-03T18:32:34.935Z,31.30
2018-08-03T18:35:05.255Z,31.30
2018-08-03T18:37:37.129Z,31.20
2018-08-03T18:40:08.210Z,31.20
2018-08-03T18:42:41.249Z,31.10
2018-08-03T18:45:11.813Z,31.10
2018-08-03T18:47:43.108Z,31.00
2018-08-03T18:50:14.730Z,31.00
2018-08-03T18:52:43.564Z,30.90
2018-08-03T18:55:13.155Z,30.80
2018-08-03T18:57:49.236Z,30.80
2018-08-03T19:00:18.464Z,30.70
2018-08-03T19:05:20.083Z,30.60
2018-08-03T19:07:52.793Z,30.50
2018-08-03T19:10:22.806Z,30.50
2018-08-03T19:12:57.225Z,30.40
2018-08-03T19:15:27.471Z,30.40
2018-08-03T19:20:28.181Z,30.20
2018-08-03T19:23:01.940Z,30.10
2018-08-03T19:25:31.850Z,30.00
2018-08-03T19:28:04.181Z,30.00
2018-08-03T19:30:33.667Z,29.90
2018-08-03T19:33:04.723Z,29.80
2018-08-03T19:35:35.171Z,29.70
2018-08-03T19:38:12.684Z,29.70
2018-08-03T19:40:42.410Z,29.60
2018-08-03T19:43:17.453Z,29.50
2018-08-03T19:45:48.088Z,29.40
2018-08-03T19:48:20.679Z,29.30
2018-08-03T19:50:50.948Z,29.30
2018-08-03T19:53:20.224Z,29.20
2018-08-03T19:55:50.168Z,29.20
2018-08-03T19:58:20.695Z,29.10
2018-08-03T20:00:49.756Z,29.10
2018-08-03T20:03:23.178Z,29.00
2018-08-03T20:05:53.320Z,29.00
2018-08-03T20:08:27.233Z,28.90
2018-08-03T20:10:59.433Z,28.90
2018-08-03T20:13:30.302Z,28.80
2018-08-03T20:16:01.620Z,28.80
2018-08-03T20:18:33.081Z,28.80
2018-08-03T20:21:03.192Z,28.80
2018-08-03T20:23:36.465Z,28.80
2018-08-03T20:26:05.845Z,28.70
2018-08-03T20:28:38.190Z,28.60
2018-08-03T20:31:08.702Z,28.60
2018-08-03T20:33:38.073Z,28.50
2018-08-03T20:36:08.214Z,28.50
2018-08-03T20:38:40.314Z,28.40
2018-08-03T20:41:09.288Z,28.40
2018-08-03T20:43:42.146Z,28.30
2018-08-03T20:46:11.320Z,28.30
2018-08-03T20:48:44.384Z,28.30
2018-08-03T20:51:13.556Z,28.30
2018-08-03T20:53:50.687Z,28.30
2018-08-03T20:56:20.167Z,28.30
2018-08-03T20:58:50.722Z,28.20
2018-08-03T21:01:20.069Z,28.20
2018-08-03T21:03:53.024Z,28.20
2018-08-03T21:06:22.288Z,28.10
2018-08-03T21:08:54.783Z,28.10
2018-08-03T21:11:23.655Z,28.10
2018-08-03T21:13:58.404Z,28.00
2018-08-03T21:16:27.725Z,28.00
2018-08-03T21:19:04.422Z,27.90
2018-08-03T21:21:36.202Z,27.90
2018-08-03T21:24:06.111Z,27.90
2018-08-03T21:26:36.010Z,27.90
2018-08-03T21:29:08.182Z,27.80
2018-08-03T21:31:38.615Z,27.80
2018-08-03T21:34:11.057Z,27.80
2018-08-03T21:36:40.942Z,27.80
2018-08-03T21:39:14.324Z,27.80
2018-08-03T21:41:44.180Z,27.80
2018-08-03T21:44:18.106Z,27.70
2018-08-03T21:46:47.759Z,27.70
2018-08-03T21:49:20.580Z,27.70
2018-08-03T21:51:51.350Z,27.60
2018-08-03T21:54:22.331Z,27.60
2018-08-03T21:56:56.035Z,27.60
2018-08-03T21:59:27.490Z,27.60
2018-08-03T22:02:00.310Z,27.50
2018-08-03T22:04:29.196Z,27.50
2018-08-03T22:06:59.346Z,27.40
2018-08-03T22:09:28.564Z,27.30
2018-08-03T22:11:57.928Z,27.30
2018-08-03T22:14:30.989Z,27.20
2018-08-03T22:17:01.178Z,27.20
2018-08-03T22:19:33.167Z,27.10
2018-08-03T22:22:02.712Z,27.10
2018-08-03T22:24:37.307Z,27.00
2018-08-03T22:27:06.164Z,27.10
2018-08-03T22:29:39.851Z,27.00
2018-08-03T22:32:08.799Z,27.00
2018-08-03T22:34:50.427Z,27.00
2018-08-03T22:37:20.178Z,27.00
2018-08-03T22:39:49.172Z,26.90
2018-08-03T22:42:19.138Z,26.90
2018-08-03T22:44:48.489Z,26.80
2018-08-03T22:47:17.871Z,26.80
2018-08-03T22:49:55.404Z,26.80
2018-08-03T22:52:24.604Z,26.80
2018-08-03T22:54:55.595Z,26.70
2018-08-03T22:57:27.505Z,26.70
2018-08-03T22:59:56.695Z,26.70
2018-08-03T23:02:26.103Z,26.60
2018-08-03T23:04:59.251Z,26.70
2018-08-03T23:07:28.580Z,26.70
2018-08-03T23:10:06.407Z,26.60
2018-08-03T23:12:36.225Z,26.60
2018-08-03T23:15:07.804Z,26.60
2018-08-03T23:17:36.790Z,26.60
2018-08-03T23:20:09.154Z,26.50
2018-08-03T23:22:37.982Z,26.40
2018-08-03T23:25:12.008Z,26.40
2018-08-03T23:27:41.691Z,26.40
2018-08-03T23:30:18.051Z,26.40
2018-08-03T23:32:47.076Z,26.40
2018-08-03T23:35:17.549Z,26.40
2018-08-03T23:37:46.633Z,26.30
2018-08-03T23:40:21.140Z,26.30
2018-08-03T23:42:50.479Z,26.30
2018-08-03T23:45:22.892Z,26.20
2018-08-03T23:47:51.632Z,26.20
2018-08-03T23:50:24.272Z,26.30
2018-08-03T23:52:53.417Z,26.20
2018-08-03T23:55:30.265Z,26.20
2018-08-03T23:57:59.628Z,26.20
